Time;durP1;ratioP1;P1;durP2;ratioP2;P2;SDS_P1;SDS_P2;PMS_P1;PMS_P2;Temp;Humidity;BMP_temperature;BMP_pressure;BME280_temperature;BME280_humidity;BME280_pressure;Samples;Min_cycle;Max_cycle;Signal;HPM_P1;HPM_P2
2023/06/14 00:02:31;;;;;;;4.35;3.92;;;;;;;22.13;33.93;99802.69;10313802;28;20049;-55
2023/06/14 00:07:43;;;;;;;5.05;4.18;;;;;;;22.04;34.31;99796.66;10310454;28;20053;-55
2023/06/14 00:12:45;;;;;;;5.13;3.60;;;;;;;21.98;34.74;99801.03;10311090;28;20050;-54
2023/06/14 00:17:47;;;;;;;5.03;4.50;;;;;;;22.02;34.46;99801.44;10308962;28;20220;-54
2023/06/14 00:22:50;;;;;;;4.45;4.05;;;;;;;22.01;34.52;99806.03;10308016;28;20081;-55
2023/06/14 00:27:52;;;;;;;4.33;3.30;;;;;;;22.01;34.32;99807.94;10298076;28;20141;-55
2023/06/14 00:32:54;;;;;;;4.50;3.92;;;;;;;21.95;34.72;99814.16;10312262;28;20089;-54
2023/06/14 00:37:56;;;;;;;4.05;3.28;;;;;;;21.92;34.32;99809.16;10315178;28;20553;-55
2023/06/14 00:42:57;;;;;;;4.25;3.85;;;;;;;21.80;35.02;99806.22;10299006;28;20566;-55
2023/06/14 00:48:00;;;;;;;3.47;3.17;;;;;;;21.80;35.32;99804.38;10303707;28;20050;-54
2023/06/14 00:53:02;;;;;;;5.03;3.60;;;;;;;21.70;35.01;99810.19;10312931;28;20054;-55
2023/06/14 00:58:03;;;;;;;4.25;3.85;;;;;;;21.70;35.18;99809.38;10308232;28;20076;-55
2023/06/14 01:03:05;;;;;;;6.15;4.13;;;;;;;21.57;35.00;99803.94;10301671;28;20446;-55
2023/06/14 01:08:24;;;;;;;5.47;3.72;;;;;;;21.48;35.46;99812.25;10308498;28;20062;-55
2023/06/14 01:13:33;;;;;;;5.90;4.20;;;;;;;21.40;35.78;99817.00;10310190;28;20567;-58
2023/06/14 01:18:36;;;;;;;4.13;3.83;;;;;;;21.33;35.82;99816.97;10310275;28;20054;-57
2023/06/14 01:23:38;;;;;;;4.38;3.97;;;;;;;21.33;35.44;99814.28;10291619;28;20046;-55
2023/06/14 01:28:40;;;;;;;5.95;3.45;;;;;;;21.28;35.86;99820.31;10291808;28;20756;-55
2023/06/14 01:33:41;;;;;;;5.15;3.78;;;;;;;21.16;36.04;99813.81;10308197;28;20058;-55
2023/06/14 01:38:44;;;;;;;5.45;4.18;;;;;;;21.17;36.28;99815.50;10313741;28;20060;-54
2023/06/14 01:43:48;;;;;;;6.28;4.13;;;;;;;21.07;36.60;99810.47;10311920;28;20061;-55
2023/06/14 01:48:50;;;;;;;3.85;3.38;;;;;;;21.09;36.06;99813.81;10289074;28;20064;-55
2023/06/14 01:53:51;;;;;;;5.22;3.58;;;;;;;21.03;36.25;99809.19;10302419;28;20280;-55
2023/06/14 01:58:53;;;;;;;4.47;4.07;;;;;;;20.98;36.62;99808.97;10305763;28;20049;-55
2023/06/14 02:03:55;;;;;;;4.60;4.10;;;;;;;20.95;36.68;99801.25;10307930;28;20081;-55
2023/06/14 02:08:56;;;;;;;5.18;3.65;;;;;;;20.92;36.36;99807.06;10309364;28;20112;-56
2023/06/14 02:13:59;;;;;;;5.03;3.67;;;;;;;20.84;36.64;99811.63;10305141;28;20065;-55
2023/06/14 02:19:01;;;;;;;4.85;3.50;;;;;;;20.79;36.73;99819.50;10309071;28;20058;-55
2023/06/14 02:24:03;;;;;;;3.92;3.55;;;;;;;20.76;36.90;99814.50;10307702;28;20049;-55
2023/06/14 02:29:05;;;;;;;4.78;3.60;;;;;;;20.53;37.62;99819.34;10306967;28;20602;-55
2023/06/14 02:34:09;;;;;;;4.40;3.65;;;;;;;20.44;37.79;99821.38;10307670;28;20054;-54
2023/06/14 02:39:11;;;;;;;4.50;4.07;;;;;;;20.45;37.63;99823.03;10312524;28;20050;-58
2023/06/14 02:44:13;;;;;;;5.60;3.75;;;;;;;20.42;37.61;99829.69;10309725;28;20132;-55
2023/06/14 02:49:14;;;;;;;3.83;3.40;;;;;;;20.40;37.57;99825.50;10306013;28;20058;-56
2023/06/14 02:54:16;;;;;;;5.97;3.15;;;;;;;20.38;37.62;99828.38;10307127;28;20428;-56
2023/06/14 02:59:19;;;;;;;4.85;3.65;;;;;;;20.33;37.87;99833.56;10290133;28;20090;-57
2023/06/14 03:04:20;;;;;;;4.78;3.08;;;;;;;20.14;38.20;99827.81;10305848;28;20049;-55
2023/06/14 03:09:22;;;;;;;5.70;4.03;;;;;;;20.04;38.32;99838.16;10306682;28;20137;-55
2023/06/14 03:14:24;;;;;;;6.50;3.95;;;;;;;19.99;38.42;99845.97;10306778;28;20042;-55
2023/06/14 03:19:26;;;;;;;4.40;3.45;;;;;;;19.87;39.02;99844.84;10305707;28;20655;-56
2023/06/14 03:24:27;;;;;;;5.85;3.90;;;;;;;19.89;38.55;99859.84;10293912;28;20181;-60
2023/06/14 03:29:29;;;;;;;4.95;3.75;;;;;;;19.92;39.15;99872.09;10306842;28;20149;-55
2023/06/14 03:34:31;;;;;;;5.40;3.72;;;;;;;19.86;39.43;99862.06;10295477;28;20552;-55
2023/06/14 03:39:32;;;;;;;4.38;3.80;;;;;;;19.37;40.07;99874.44;10302238;28;20111;-55
2023/06/14 03:44:34;;;;;;;3.78;3.00;;;;;;;19.54;39.96;99875.03;10306313;28;20091;-55
2023/06/14 03:49:36;;;;;;;4.38;3.58;;;;;;;19.67;39.67;99877.88;10297561;28;20054;-55
2023/06/14 03:54:38;;;;;;;5.00;3.95;;;;;;;19.68;40.01;99892.19;10307263;28;20415;-55
2023/06/14 03:59:42;;;;;;;5.03;3.40;;;;;;;19.74;39.82;99892.28;10304888;28;20050;-55
2023/06/14 04:04:45;;;;;;;6.15;3.67;;;;;;;19.74;39.98;99899.50;10289351;28;20165;-53
2023/06/14 04:09:46;;;;;;;4.85;3.28;;;;;;;19.55;40.36;99906.41;10304114;28;20729;-54
2023/06/14 04:14:48;;;;;;;5.10;3.38;;;;;;;19.57;40.10;99912.44;10305320;28;20144;-54
2023/06/14 04:19:49;;;;;;;4.97;3.38;;;;;;;19.57;40.04;99907.03;10304652;28;20467;-53
2023/06/14 04:24:52;;;;;;;6.45;3.67;;;;;;;19.49;39.77;99915.25;10309495;28;20144;-54
2023/06/14 04:30:07;;;;;;;4.50;4.05;;;;;;;19.47;40.43;99923.56;10275520;28;20730;-54
2023/06/14 04:35:13;;;;;;;6.05;3.38;;;;;;;19.48;40.65;99929.78;10305109;28;20057;-55
2023/06/14 04:40:16;;;;;;;5.07;3.58;;;;;;;19.41;40.87;99932.38;10304069;28;20061;-54
2023/06/14 04:45:17;;;;;;;5.03;3.67;;;;;;;19.46;41.02;99934.53;10308636;28;20057;-55
2023/06/14 04:50:20;;;;;;;4.28;3.05;;;;;;;19.43;40.79;99933.03;10314518;28;20283;-54
2023/06/14 04:55:21;;;;;;;3.37;2.83;;;;;;;19.31;41.71;99935.38;10311445;28;20061;-55
2023/06/14 05:00:23;;;;;;;3.35;2.92;;;;;;;19.45;41.28;99954.44;10305678;28;20048;-55
2023/06/14 05:05:24;;;;;;;4.60;3.17;;;;;;;19.56;41.59;99951.25;10298807;28;20050;-55
2023/06/14 05:10:26;;;;;;;3.85;3.42;;;;;;;19.58;41.34;99946.50;10296204;28;20068;-61
2023/06/14 05:15:28;;;;;;;3.40;3.05;;;;;;;19.60;41.07;99949.84;10292896;28;22458;-61
2023/06/14 05:20:30;;;;;;;4.55;2.97;;;;;;;19.66;41.68;99953.66;10301316;28;20047;-61
2023/06/14 05:25:32;;;;;;;4.93;3.33;;;;;;;19.71;41.72;99962.88;10290149;28;20050;-61
2023/06/14 05:30:34;;;;;;;5.28;3.58;;;;;;;19.77;41.23;99964.81;10294686;28;20135;-60
2023/06/14 05:35:36;;;;;;;5.63;3.63;;;;;;;19.66;42.13;99962.56;10302896;28;20061;-60
2023/06/14 05:40:37;;;;;;;3.78;3.38;;;;;;;19.77;42.26;99978.34;10297001;28;20056;-60
2023/06/14 05:45:39;;;;;;;5.28;3.60;;;;;;;19.88;41.97;99968.06;10253590;28;20097;-61
2023/06/14 05:50:40;;;;;;;3.25;2.95;;;;;;;20.01;41.68;99973.59;10295679;28;20841;-60
2023/06/14 05:55:42;;;;;;;5.47;3.35;;;;;;;20.06;41.33;99973.84;10265013;28;20155;-60
2023/06/14 06:00:45;;;;;;;9.57;3.35;;;;;;;20.07;41.79;99989.03;10272488;28;20069;-61
2023/06/14 06:05:47;;;;;;;6.43;3.17;;;;;;;20.09;41.50;99986.97;10266816;28;20155;-60
2023/06/14 06:10:48;;;;;;;5.22;3.40;;;;;;;20.10;41.47;100002.16;10285051;28;20071;-61
2023/06/14 06:15:50;;;;;;;3.75;3.03;;;;;;;20.06;41.68;100005.44;10281947;28;20049;-59
2023/06/14 06:20:52;;;;;;;4.60;3.40;;;;;;;20.22;41.74;100009.75;10275531;28;20068;-59
2023/06/14 06:25:55;;;;;;;5.00;3.17;;;;;;;20.40;41.92;100010.16;10293501;28;20511;-59
2023/06/14 06:30:56;;;;;;;5.45;3.70;;;;;;;20.49;41.48;100002.72;10283315;28;20300;-59
2023/06/14 06:35:58;;;;;;;4.75;2.92;;;;;;;20.57;41.67;100009.88;10280630;28;20060;-59
2023/06/14 06:40:59;;;;;;;4.55;2.70;;;;;;;20.55;41.27;100014.63;10286466;28;20066;-60
2023/06/14 06:46:02;;;;;;;5.55;3.22;;;;;;;20.75;41.07;100012.97;10291376;28;20128;-61
2023/06/14 06:51:05;;;;;;;4.50;2.72;;;;;;;20.78;40.99;100017.16;10297862;28;20155;-60
2023/06/14 06:56:07;;;;;;;4.45;2.55;;;;;;;20.88;40.76;100016.81;10293504;28;20415;-59
2023/06/14 07:01:09;;;;;;;4.13;2.60;;;;;;;21.01;40.96;100023.13;10282413;28;20058;-62
2023/06/14 07:06:11;;;;;;;2.20;1.60;;;;;;;20.99;40.36;100008.16;10294739;28;20116;-60
2023/06/14 07:11:13;;;;;;;3.33;2.00;;;;;;;21.16;39.20;100009.50;10266384;28;20065;-60
2023/06/14 07:16:16;;;;;;;2.30;1.73;;;;;;;21.27;38.78;100018.09;10266359;28;20054;-61
2023/06/14 07:21:18;;;;;;;2.92;1.60;;;;;;;21.48;39.02;100028.00;10271690;28;20909;-60
2023/06/14 07:26:20;;;;;;;3.55;1.38;;;;;;;21.61;39.03;100013.72;10262775;28;20057;-59
2023/06/14 07:31:22;;;;;;;3.25;1.45;;;;;;;21.76;37.88;100019.00;10275030;28;20066;-60
2023/06/14 07:36:23;;;;;;;3.03;1.20;;;;;;;21.84;37.64;100025.06;10278433;28;20102;-59
2023/06/14 07:41:25;;;;;;;1.83;1.38;;;;;;;21.97;37.90;100020.72;10277715;28;20129;-59
2023/06/14 07:46:27;;;;;;;1.63;1.52;;;;;;;22.12;37.33;100015.97;10274613;28;20053;-59
2023/06/14 07:51:30;;;;;;;1.38;1.27;;;;;;;22.22;37.71;100032.69;10276109;28;20073;-59
2023/06/14 07:56:31;;;;;;;2.37;1.40;;;;;;;22.40;37.77;100020.44;10293349;28;20076;-61
2023/06/14 08:01:33;;;;;;;3.33;1.60;;;;;;;22.53;37.64;100000.63;10277792;28;21225;-60
2023/06/14 08:06:36;;;;;;;4.30;1.33;;;;;;;22.71;37.90;100013.56;10284153;28;20231;-60
2023/06/14 08:11:38;;;;;;;1.40;1.10;;;;;;;22.84;37.21;100023.56;10281547;28;20084;-61
2023/06/14 08:16:39;;;;;;;1.88;1.42;;;;;;;22.94;36.94;100015.84;10265614;28;20442;-61
2023/06/14 08:21:41;;;;;;;3.13;1.35;;;;;;;22.98;36.11;100011.66;10286842;28;20120;-61
2023/06/14 08:26:42;;;;;;;1.83;1.25;;;;;;;22.93;36.25;100017.72;10287241;28;20102;-60
2023/06/14 08:31:44;;;;;;;2.03;1.02;;;;;;;23.02;35.98;100012.91;10283379;28;20168;-62
2023/06/14 08:36:46;;;;;;;1.92;0.70;;;;;;;23.18;35.91;100024.38;10302836;28;20050;-61
2023/06/14 08:41:51;;;;;;;1.55;1.35;;;;;;;23.16;35.93;100019.16;10298193;28;21030;-63
2023/06/14 08:46:56;;;;;;;1.80;0.90;;;;;;;23.43;35.66;100021.81;10270988;28;20522;-64
2023/06/14 08:52:00;;;;;;;1.73;1.00;;;;;;;23.58;35.33;100019.66;10300909;28;20126;-60
2023/06/14 08:57:06;;;;;;;4.32;1.25;;;;;;;23.56;35.17;100016.34;10296954;28;20050;-60
2023/06/14 09:02:12;;;;;;;1.98;0.98;;;;;;;23.85;34.48;100030.47;10283576;28;20060;-62
2023/06/14 09:07:14;;;;;;;2.63;1.17;;;;;;;23.96;34.04;100034.38;10268031;28;20113;-61
2023/06/14 09:12:16;;;;;;;2.17;0.82;;;;;;;23.95;33.64;100036.25;10278654;28;20052;-63
2023/06/14 09:17:18;;;;;;;1.63;1.10;;;;;;;24.19;33.47;100033.84;10291506;28;20054;-63
2023/06/14 09:22:20;;;;;;;2.42;1.38;;;;;;;24.38;33.16;100045.66;10292040;28;20046;-61
2023/06/14 09:27:26;;;;;;;3.40;1.27;;;;;;;24.32;33.79;100049.22;10291965;28;20166;-61
2023/06/14 09:32:27;;;;;;;1.98;1.25;;;;;;;24.18;33.68;100045.75;10297190;28;20046;-62
2023/06/14 09:37:31;;;;;;;3.17;1.10;;;;;;;24.44;33.22;100035.75;10272757;28;20101;-62
2023/06/14 09:42:35;;;;;;;2.53;1.30;;;;;;;24.74;33.07;100049.59;10288173;28;20050;-61
2023/06/14 09:47:38;;;;;;;5.28;1.50;;;;;;;25.01;32.25;100042.03;10300039;28;20191;-61
2023/06/14 09:52:52;;;;;;;1.52;0.98;;;;;;;25.34;31.74;100045.50;10282720;28;20072;-62
2023/06/14 09:57:56;;;;;;;1.25;1.15;;;;;;;25.44;31.85;100058.59;10287428;28;20584;-61
2023/06/14 10:03:06;;;;;;;2.67;1.05;;;;;;;25.37;31.43;100040.44;10272385;28;20060;-62
2023/06/14 10:08:10;;;;;;;2.25;1.40;;;;;;;25.59;31.96;100037.25;10288617;28;20132;-62
2023/06/14 10:13:13;;;;;;;2.90;1.27;;;;;;;25.74;31.16;100024.06;10293053;28;20500;-61
2023/06/14 10:18:38;;;;;;;1.35;0.93;;;;;;;26.03;30.81;100035.28;10295072;28;20061;-62
2023/06/14 10:23:42;;;;;;;1.55;1.02;;;;;;;26.36;29.93;100024.91;10294501;28;20058;-62
2023/06/14 10:28:56;;;;;;;2.47;1.45;;;;;;;26.44;29.48;100016.41;10296531;28;20351;-61
2023/06/14 10:33:59;;;;;;;3.08;1.45;;;;;;;26.34;30.39;100029.78;10301448;28;20077;-62
2023/06/14 10:39:05;;;;;;;3.13;1.27;;;;;;;26.54;29.01;100021.28;10296938;28;20512;-63
2023/06/14 10:44:12;;;;;;;2.15;1.80;;;;;;;26.65;30.32;100023.22;10302732;28;20486;-53
2023/06/14 10:49:21;;;;;;;1.30;1.20;;;;;;;26.65;29.74;100028.66;10298433;28;20539;-54
2023/06/14 10:54:23;;;;;;;3.45;1.73;;;;;;;26.62;30.48;100023.69;10298957;28;20140;-52
2023/06/14 10:59:25;;;;;;;3.05;1.20;;;;;;;26.53;30.08;100031.38;10297885;28;20915;-53
2023/06/14 11:04:46;;;;;;;2.78;1.60;;;;;;;26.28;30.03;100026.09;10300120;28;20057;-54
2023/06/14 11:10:05;;;;;;;2.28;1.20;;;;;;;26.20;30.07;100027.25;10297396;28;20046;-54
2023/06/14 11:15:07;;;;;;;1.63;1.23;;;;;;;26.18;29.72;100034.00;10300424;28;20631;-54
2023/06/14 11:20:10;;;;;;;1.90;1.38;;;;;;;26.14;29.94;100036.38;10283066;28;20678;-54
2023/06/14 11:25:15;;;;;;;2.08;0.95;;;;;;;26.29;29.49;100036.78;10298576;28;20158;-53
2023/06/14 11:30:18;;;;;;;2.15;0.88;;;;;;;26.50;28.93;100028.28;10300725;28;20064;-53
2023/06/14 11:35:25;;;;;;;2.40;1.00;;;;;;;26.36;29.00;100033.97;10299323;28;20057;-54
2023/06/14 11:40:27;;;;;;;2.55;1.13;;;;;;;26.11;29.04;100029.47;10280282;28;20045;-53
2023/06/14 11:45:30;;;;;;;1.20;1.00;;;;;;;26.04;28.98;100028.72;10296795;28;20054;-54
2023/06/14 11:50:33;;;;;;;2.83;0.90;;;;;;;26.03;29.31;100038.00;10297349;28;20076;-53
2023/06/14 11:55:38;;;;;;;;;;;;;;;26.17;28.66;100029.63;10299864;28;21400;-53
2023/06/14 12:00:41;;;;;;;1.52;1.13;;;;;;;26.09;29.14;100026.16;10292395;28;19933;-53
2023/06/14 12:05:43;;;;;;;;;;;;;;;26.00;28.75;100027.56;10291479;28;20045;-52
2023/06/14 12:10:45;;;;;;;2.42;1.48;;;;;;;25.92;29.45;100030.56;10291501;28;19925;-53
2023/06/14 12:15:54;;;;;;;1.50;1.33;;;;;;;25.96;29.70;100031.75;10295185;28;20091;-54
2023/06/14 12:21:02;;;;;;;1.77;1.40;;;;;;;26.18;29.41;100034.84;10294663;28;20844;-54
2023/06/14 12:26:04;;;;;;;3.03;1.88;;;;;;;26.50;28.19;100025.53;10295310;28;20706;-55
2023/06/14 12:31:07;;;;;;;2.53;1.55;;;;;;;26.52;28.33;100017.97;10287681;28;20049;-56
2023/06/14 12:36:09;;;;;;;1.98;1.67;;;;;;;26.55;28.06;100017.50;10292129;28;20104;-55
2023/06/14 12:41:11;;;;;;;2.03;1.70;;;;;;;26.66;28.31;100019.41;10290974;28;20133;-55
2023/06/14 12:46:13;;;;;;;5.40;1.90;;;;;;;26.91;28.02;100021.13;10291451;28;20102;-54
2023/06/14 12:51:14;;;;;;;2.08;1.75;;;;;;;27.03;27.64;100021.94;10291108;28;20148;-55
2023/06/14 12:56:16;;;;;;;2.77;1.87;;;;;;;27.04;27.42;100022.75;10289499;28;20057;-56
2023/06/14 13:01:18;;;;;;;1.27;1.10;;;;;;;26.76;28.01;100030.59;10291106;28;20050;-55
2023/06/14 13:06:22;;;;;;;3.10;1.40;;;;;;;26.50;28.05;100034.56;10291738;28;20725;-62
2023/06/14 13:11:24;;;;;;;2.05;1.45;;;;;;;26.38;27.84;100034.53;10290158;28;20079;-61
2023/06/14 13:16:25;;;;;;;2.13;1.50;;;;;;;26.58;28.28;100022.47;10274019;28;20606;-61
2023/06/14 13:21:27;;;;;;;2.15;1.40;;;;;;;26.53;27.39;100025.06;10286571;28;20057;-61
2023/06/14 13:26:28;;;;;;;2.10;1.90;;;;;;;26.65;27.83;100020.47;10273610;28;20054;-61
2023/06/14 13:31:30;;;;;;;3.72;1.60;;;;;;;26.61;26.81;100024.75;10279734;28;20049;-61
2023/06/14 13:36:31;;;;;;;2.70;1.30;;;;;;;26.32;27.62;100019.13;10295218;28;20054;-61
2023/06/14 13:41:34;;;;;;;2.08;1.35;;;;;;;26.23;28.68;100004.16;10303361;28;20062;-61
2023/06/14 13:46:36;;;;;;;4.50;1.10;;;;;;;26.28;28.51;100018.72;10304448;28;20050;-62
2023/06/14 13:51:55;;;;;;;2.42;1.50;;;;;;;26.10;28.62;100026.97;10299806;28;20678;-62
2023/06/14 13:56:57;;;;;;;2.42;0.95;;;;;;;26.03;28.56;100005.28;10284465;28;20054;-65
2023/06/14 14:02:16;;;;;;;4.50;1.55;;;;;;;26.00;29.43;100005.75;10286426;28;20172;-62
2023/06/14 14:07:18;;;;;;;3.03;1.20;;;;;;;26.11;29.36;99996.75;10305702;28;20406;-61
2023/06/14 14:12:20;;;;;;;1.52;1.42;;;;;;;26.06;29.14;99999.34;10281652;28;20057;-59
2023/06/14 14:17:39;;;;;;;2.05;0.85;;;;;;;26.22;29.50;100013.38;10301188;28;20064;-59
2023/06/14 14:22:58;;;;;;;3.47;1.50;;;;;;;26.05;29.26;100003.13;10300344;28;20046;-60
2023/06/14 14:28:02;;;;;;;4.45;1.60;;;;;;;25.90;29.01;99999.97;10294924;28;20161;-59
2023/06/14 14:33:03;;;;;;;1.65;1.27;;;;;;;25.98;29.69;100010.53;10308531;28;20188;-60
2023/06/14 14:38:06;;;;;;;2.05;1.00;;;;;;;25.98;30.08;100007.00;10287463;28;20061;-60
2023/06/14 14:43:08;;;;;;;2.45;1.40;;;;;;;26.03;29.54;100005.28;10302842;28;20702;-60
2023/06/14 14:48:10;;;;;;;1.52;1.20;;;;;;;26.05;28.99;100000.41;10286759;28;20574;-62
2023/06/14 14:53:11;;;;;;;1.35;1.15;;;;;;;25.98;28.23;99991.44;10287508;28;20057;-60
2023/06/14 14:58:18;;;;;;;1.35;1.25;;;;;;;26.07;28.00;100002.91;10299366;28;20107;-60
2023/06/14 15:03:20;;;;;;;1.95;1.25;;;;;;;26.11;28.79;99996.75;10283790;28;20159;-60
2023/06/14 15:08:24;;;;;;;1.55;1.20;;;;;;;25.97;27.84;99989.78;10297976;28;20057;-59
2023/06/14 15:13:26;;;;;;;2.88;1.20;;;;;;;25.93;28.95;99994.06;10284656;28;20546;-60
2023/06/14 15:18:27;;;;;;;2.03;1.70;;;;;;;25.87;28.41;99986.81;10277792;28;20061;-60
2023/06/14 15:23:28;;;;;;;2.35;1.25;;;;;;;25.88;28.52;99991.19;10295118;28;20135;-60
2023/06/14 15:28:32;;;;;;;1.58;1.20;;;;;;;25.71;28.50;99970.00;10288125;28;20075;-60
2023/06/14 15:33:36;;;;;;;3.90;1.55;;;;;;;25.81;29.66;99995.91;10303486;28;20053;-60
2023/06/14 15:38:38;;;;;;;2.10;1.40;;;;;;;25.88;30.36;99993.91;10278971;28;20053;-60
2023/06/14 15:43:40;;;;;;;3.65;1.42;;;;;;;25.96;29.81;100003.66;10299360;28;20734;-60
2023/06/14 15:48:42;;;;;;;1.92;1.23;;;;;;;25.91;29.28;100001.63;10287287;28;20050;-60
2023/06/14 15:53:44;;;;;;;2.10;1.30;;;;;;;25.90;29.15;99994.53;10298619;28;20049;-61
2023/06/14 15:58:45;;;;;;;1.42;1.20;;;;;;;25.80;29.47;99988.78;10293612;28;20050;-61
2023/06/14 16:03:47;;;;;;;2.75;1.25;;;;;;;25.66;29.55;99974.50;10295786;28;20597;-60
2023/06/14 16:08:52;;;;;;;1.77;1.23;;;;;;;25.76;30.02;99980.22;10295813;28;20140;-60
2023/06/14 16:13:55;;;;;;;2.45;1.58;;;;;;;25.62;30.07;99967.84;10295188;28;20144;-61
2023/06/14 16:18:57;;;;;;;2.13;1.00;;;;;;;25.71;30.01;99983.63;10292856;28;20049;-60
2023/06/14 16:23:58;;;;;;;2.05;1.58;;;;;;;25.81;29.97;99979.56;10282457;28;20105;-60
2023/06/14 16:28:59;;;;;;;1.77;1.40;;;;;;;25.84;30.19;99979.91;10293044;28;20046;-61
2023/06/14 16:34:01;;;;;;;2.55;1.38;;;;;;;25.83;29.80;99985.59;10297755;28;20084;-60
2023/06/14 16:39:03;;;;;;;1.60;1.20;;;;;;;25.73;29.70;99978.81;10301566;28;20139;-61
2023/06/14 16:44:04;;;;;;;3.03;1.50;;;;;;;25.65;29.63;99976.38;10284213;28;20080;-61
2023/06/14 16:49:06;;;;;;;2.17;1.77;;;;;;;25.64;29.81;99982.06;10296643;28;20052;-61
2023/06/14 16:54:08;;;;;;;1.42;1.30;;;;;;;25.58;29.75;99986.53;10285220;28;20143;-60
2023/06/14 16:59:09;;;;;;;3.10;1.52;;;;;;;25.52;30.14;99990.19;10299847;28;20046;-61
2023/06/14 17:04:11;;;;;;;2.03;1.55;;;;;;;25.57;30.37;99990.34;10282529;28;20057;-60
2023/06/14 17:09:13;;;;;;;2.00;1.40;;;;;;;25.51;30.58;99994.81;10269924;28;20050;-60
2023/06/14 17:14:15;;;;;;;2.50;1.08;;;;;;;25.47;30.54;99987.31;10283785;28;20168;-65
2023/06/14 17:19:16;;;;;;;1.67;1.58;;;;;;;25.38;30.24;99997.69;10302130;28;20050;-60
2023/06/14 17:24:19;;;;;;;3.03;1.33;;;;;;;25.38;30.63;100009.41;10269755;28;20758;-60
2023/06/14 17:29:26;;;;;;;2.95;1.85;;;;;;;25.42;30.32;100009.78;10304023;28;20057;-61
2023/06/14 17:34:28;;;;;;;3.87;2.10;;;;;;;25.40;30.02;100018.19;10291238;28;20049;-60
2023/06/14 17:39:29;;;;;;;2.00;1.75;;;;;;;25.38;29.93;100019.47;10311797;28;20060;-61
2023/06/14 17:44:31;;;;;;;3.50;1.92;;;;;;;25.26;30.25;100022.09;10293392;28;20500;-60
2023/06/14 17:49:33;;;;;;;3.63;2.10;;;;;;;25.21;30.10;100024.66;10261307;28;20563;-60
2023/06/14 17:54:35;;;;;;;5.13;2.10;;;;;;;25.10;30.58;100026.25;10265336;28;20773;-61
2023/06/14 17:59:37;;;;;;;1.70;1.60;;;;;;;25.06;30.48;100027.75;10292518;28;20106;-60
2023/06/14 18:04:39;;;;;;;3.20;2.20;;;;;;;25.03;30.81;100033.66;10250239;28;20061;-60
2023/06/14 18:09:43;;;;;;;2.22;1.42;;;;;;;24.90;30.77;100042.75;10292824;28;20084;-60
2023/06/14 18:14:45;;;;;;;2.53;1.60;;;;;;;24.83;31.03;100042.81;10266286;28;20758;-60
2023/06/14 18:19:46;;;;;;;2.47;1.70;;;;;;;24.63;31.35;100044.88;10274641;28;20125;-63
2023/06/14 18:24:48;;;;;;;2.45;1.75;;;;;;;24.55;31.72;100056.81;10282210;28;20509;-61
2023/06/14 18:29:49;;;;;;;3.00;1.63;;;;;;;24.47;31.88;100048.91;10279202;28;20214;-61
2023/06/14 18:34:51;;;;;;;2.28;1.95;;;;;;;24.46;32.21;100058.97;10289200;28;20156;-61
2023/06/14 18:39:53;;;;;;;2.45;1.52;;;;;;;24.41;31.89;100055.25;10294398;28;20121;-60
2023/06/14 18:44:55;;;;;;;3.45;2.00;;;;;;;24.26;32.29;100083.59;10293362;28;20694;-60
2023/06/14 18:49:56;;;;;;;3.28;1.90;;;;;;;24.16;32.20;100066.91;10280063;28;20056;-59
2023/06/14 18:54:58;;;;;;;2.15;1.95;;;;;;;24.00;32.41;100074.53;10293627;28;20058;-61
2023/06/14 18:59:59;;;;;;;1.75;1.65;;;;;;;23.91;32.62;100070.34;10279607;28;20054;-61
2023/06/14 19:05:04;;;;;;;2.88;1.75;;;;;;;23.78;32.73;100073.94;10271601;28;20079;-54
2023/06/14 19:10:06;;;;;;;3.38;1.65;;;;;;;23.76;33.09;100086.06;10280731;28;20789;-55
2023/06/14 19:15:09;;;;;;;2.95;1.90;;;;;;;23.75;33.41;100087.13;10298478;28;20065;-61
2023/06/14 19:20:10;;;;;;;1.60;1.47;;;;;;;23.64;33.59;100094.91;10290272;28;20653;-55
2023/06/14 19:25:13;;;;;;;3.05;2.53;;;;;;;23.54;33.79;100097.22;10278167;28;20054;-55
2023/06/14 19:30:16;;;;;;;;;;;;;;;23.54;33.65;100101.81;10260972;28;20826;-55
2023/06/14 19:35:19;;;;;;;2.13;1.85;;;;;;;23.51;33.56;100111.22;10271505;28;20449;-55
2023/06/14 19:40:21;;;;;;;2.40;2.20;;;;;;;23.45;33.70;100110.19;10294651;28;20058;-55
2023/06/14 19:45:23;;;;;;;4.18;2.63;;;;;;;23.43;33.78;100122.31;10291212;28;20054;-55
2023/06/14 19:50:24;;;;;;;3.05;2.53;;;;;;;23.34;33.92;100142.59;10293295;28;20057;-56
2023/06/14 19:55:26;;;;;;;2.75;2.08;;;;;;;23.21;34.27;100133.41;10275093;28;20262;-54
2023/06/14 20:00:28;;;;;;;2.45;1.98;;;;;;;23.16;34.36;100154.91;10289690;28;20053;-55
2023/06/14 20:05:30;;;;;;;2.70;1.85;;;;;;;23.12;34.74;100137.38;10278173;28;20081;-56
2023/06/14 20:10:31;;;;;;;2.10;1.90;;;;;;;23.18;34.43;100152.84;10280295;28;20046;-56
2023/06/14 20:15:33;;;;;;;2.65;2.40;;;;;;;23.04;34.59;100153.84;10271481;28;20216;-58
2023/06/14 20:20:35;;;;;;;1.98;1.88;;;;;;;22.89;34.76;100159.47;10303518;28;20054;-58
2023/06/14 20:25:36;;;;;;;2.35;2.15;;;;;;;22.82;35.35;100167.59;10301763;28;20506;-58
2023/06/14 20:30:38;;;;;;;3.10;2.25;;;;;;;22.74;35.53;100174.06;10297251;28;20050;-58
2023/06/14 20:35:40;;;;;;;3.33;1.98;;;;;;;22.19;36.13;100171.34;10298899;28;20057;-58
2023/06/14 20:40:41;;;;;;;4.57;1.88;;;;;;;22.23;36.41;100164.47;10282362;28;20049;-58
2023/06/14 20:45:43;;;;;;;2.28;2.08;;;;;;;22.17;36.69;100170.72;10304541;28;20070;-58
2023/06/14 20:50:44;;;;;;;2.85;1.92;;;;;;;22.18;36.96;100168.81;10259530;28;20678;-58
2023/06/14 20:55:46;;;;;;;3.05;2.10;;;;;;;22.13;37.09;100166.72;10295589;28;20256;-58
2023/06/14 21:00:49;;;;;;;3.67;2.20;;;;;;;22.00;37.15;100182.91;10291844;28;20064;-58
2023/06/14 21:05:51;;;;;;;2.75;1.90;;;;;;;22.04;37.89;100184.19;10298593;28;20301;-54
2023/06/14 21:10:56;;;;;;;2.38;1.80;;;;;;;22.06;37.82;100182.13;10306022;28;20734;-54
2023/06/14 21:15:57;;;;;;;2.05;1.85;;;;;;;22.14;37.69;100190.06;10295737;28;20478;-54
2023/06/14 21:20:59;;;;;;;1.98;1.80;;;;;;;22.05;37.91;100191.28;10312994;28;20652;-54
2023/06/14 21:26:01;;;;;;;4.30;1.50;;;;;;;22.10;37.81;100188.81;10314516;28;20061;-54
2023/06/14 21:31:08;;;;;;;1.67;1.58;;;;;;;21.97;37.75;100192.28;10312642;28;20054;-55
2023/06/14 21:36:09;;;;;;;1.50;1.40;;;;;;;21.93;38.63;100198.28;10304688;28;20205;-54
2023/06/14 21:41:12;;;;;;;2.70;1.73;;;;;;;21.81;38.39;100200.72;10299772;28;20061;-54
2023/06/14 21:46:13;;;;;;;2.45;2.13;;;;;;;21.61;39.16;100206.00;10310288;28;20517;-54
2023/06/14 21:51:15;;;;;;;2.30;1.70;;;;;;;21.69;38.80;100211.25;10316384;28;20088;-53
2023/06/14 21:56:18;;;;;;;3.03;1.85;;;;;;;21.71;38.90;100198.38;10313586;28;20061;-52
2023/06/14 22:01:19;;;;;;;1.85;1.40;;;;;;;21.64;39.04;100200.19;10311846;28;20057;-59
2023/06/14 22:06:21;;;;;;;2.22;1.58;;;;;;;21.66;39.48;100214.38;10309057;28;20112;-54
2023/06/14 22:11:26;;;;;;;1.73;1.60;;;;;;;21.31;40.12;100211.56;10312181;28;20073;-55
2023/06/14 22:16:28;;;;;;;2.25;2.05;;;;;;;21.43;40.10;100220.00;10312123;28;20061;-54
2023/06/14 22:21:33;;;;;;;6.30;2.10;;;;;;;21.43;40.13;100215.41;10305757;28;20050;-54
2023/06/14 22:26:47;;;;;;;2.78;1.83;;;;;;;21.35;40.51;100221.81;10311568;28;20683;-52
2023/06/14 22:31:49;;;;;;;3.58;1.73;;;;;;;21.31;40.24;100222.41;10314051;28;20050;-54
2023/06/14 22:36:54;;;;;;;2.28;2.05;;;;;;;21.25;40.74;100217.78;10309879;28;20240;-55
2023/06/14 22:41:56;;;;;;;2.10;1.50;;;;;;;21.27;40.48;100221.09;10308192;28;20053;-54
2023/06/14 22:46:59;;;;;;;2.45;1.83;;;;;;;21.26;41.08;100220.28;10291181;28;20537;-54
2023/06/14 22:52:04;;;;;;;2.38;1.58;;;;;;;21.21;40.97;100225.41;10296806;28;20136;-54
2023/06/14 22:57:07;;;;;;;2.65;1.42;;;;;;;21.16;41.30;100231.41;10306308;28;20140;-54
2023/06/14 23:02:11;;;;;;;1.92;1.70;;;;;;;21.15;41.26;100218.94;10312028;28;20058;-55
2023/06/14 23:07:21;;;;;;;2.10;1.63;;;;;;;21.13;41.39;100218.28;10308289;28;20204;-54
2023/06/14 23:12:25;;;;;;;3.30;2.15;;;;;;;21.12;41.51;100215.75;10307063;28;20053;-54
2023/06/14 23:17:30;;;;;;;5.70;1.70;;;;;;;21.08;41.65;100218.03;10309404;28;20061;-54
2023/06/14 23:22:35;;;;;;;2.03;1.65;;;;;;;21.01;41.88;100217.13;10299165;28;20143;-54